Time;durP1;ratioP1;P1;durP2;ratioP2;P2;SDS_P1;SDS_P2;PMS_P1;PMS_P2;Temp;Humidity;BMP_temperature;BMP_pressure;BME280_temperature;BME280_humidity;BME280_pressure;Samples;Min_cycle;Max_cycle;Signal;HPM_P1;HPM_P2
2023/02/06 00:02:02;;;;;;;36.50;7.78;;;;;;;4.75;100.00;104422.28;10373874;28;20029;-66
2023/02/06 00:07:02;;;;;;;42.58;6.78;;;;;;;4.75;100.00;104419.59;10373851;28;20129;-65
2023/02/06 00:12:03;;;;;;;40.92;10.38;;;;;;;4.71;100.00;104429.59;10376132;28;20097;-66
2023/02/06 00:17:03;;;;;;;40.35;8.75;;;;;;;4.71;100.00;104418.88;10373521;28;20044;-66
2023/02/06 00:22:03;;;;;;;33.15;7.75;;;;;;;4.69;100.00;104423.47;10375188;28;20096;-66
2023/02/06 00:27:04;;;;;;;23.50;9.07;;;;;;;4.66;100.00;104410.19;10374862;28;20037;-65
2023/02/06 00:32:04;;;;;;;27.67;6.50;;;;;;;4.65;100.00;104400.38;10374490;28;20185;-67
2023/02/06 00:37:04;;;;;;;45.05;7.47;;;;;;;4.63;100.00;104404.97;10374935;28;20064;-65
2023/02/06 00:42:05;;;;;;;21.52;7.60;;;;;;;4.61;100.00;104406.84;10374793;28;20030;-66
2023/02/06 00:47:05;;;;;;;23.08;8.60;;;;;;;4.61;100.00;104412.19;10389866;28;20103;-65
2023/02/06 00:52:06;;;;;;;23.92;7.20;;;;;;;4.64;100.00;104414.75;10383630;28;20034;-66
2023/02/06 00:57:06;;;;;;;28.30;7.45;;;;;;;4.59;100.00;104408.72;10386537;28;20037;-65
2023/02/06 01:02:06;;;;;;;21.63;8.48;;;;;;;4.58;100.00;104402.47;10397016;28;20037;-67
2023/02/06 01:07:07;;;;;;;30.70;6.65;;;;;;;4.62;100.00;104393.31;10377740;28;20041;-66
2023/02/06 01:12:07;;;;;;;41.60;7.65;;;;;;;4.65;100.00;104392.31;10372751;28;20093;-65
2023/02/06 01:17:09;;;;;;;36.70;8.18;;;;;;;4.68;100.00;104400.22;10373465;28;20121;-66
2023/02/06 01:22:09;;;;;;;26.77;8.20;;;;;;;4.68;100.00;104405.59;10372971;28;20042;-66
2023/02/06 01:27:09;;;;;;;25.55;7.38;;;;;;;4.73;100.00;104400.03;10375164;28;20065;-66
2023/02/06 01:32:10;;;;;;;19.35;6.65;;;;;;;4.74;100.00;104391.88;10396773;28;20115;-66
2023/02/06 01:37:10;;;;;;;24.52;6.40;;;;;;;4.75;100.00;104395.44;10381355;28;20127;-67
2023/02/06 01:42:11;;;;;;;24.70;7.68;;;;;;;4.76;100.00;104406.13;10378696;28;20034;-67
2023/02/06 01:47:12;;;;;;;28.95;6.82;;;;;;;4.74;100.00;104404.44;10397335;28;20034;-67
2023/02/06 01:52:22;;;;;;;22.15;7.32;;;;;;;4.70;100.00;104394.81;10382693;28;20121;-66
2023/02/06 01:57:22;;;;;;;31.20;7.03;;;;;;;4.67;100.00;104398.50;10380649;28;20042;-66
2023/02/06 02:02:23;;;;;;;20.80;5.93;;;;;;;4.63;100.00;104396.91;10379006;28;20038;-66
2023/02/06 02:07:26;;;;;;;31.48;6.63;;;;;;;4.60;100.00;104389.00;10380131;28;20052;-66
2023/02/06 02:12:26;;;;;;;29.88;5.40;;;;;;;4.58;100.00;104391.72;10378189;28;20041;-67
2023/02/06 02:17:47;;;;;;;28.50;5.55;;;;;;;4.54;100.00;104383.91;10361723;28;20109;-66
2023/02/06 02:23:12;;;;;;;25.98;6.75;;;;;;;4.47;100.00;104374.38;10394829;28;20447;-66
2023/02/06 02:28:38;;;;;;;21.35;5.40;;;;;;;4.40;100.00;104355.03;10378754;28;20037;-66
2023/02/06 02:33:56;;;;;;;27.17;6.78;;;;;;;4.33;100.00;104362.50;10376881;28;20108;-66
2023/02/06 02:39:13;;;;;;;33.42;7.53;;;;;;;4.24;100.00;104365.59;10377727;28;20541;-66
2023/02/06 02:44:19;;;;;;;24.67;6.13;;;;;;;4.19;100.00;104362.28;10393209;28;20378;-66
2023/02/06 02:49:21;;;;;;;17.33;5.80;;;;;;;4.17;100.00;104348.06;10393044;28;20026;-66
2023/02/06 02:54:22;;;;;;;11.23;5.68;;;;;;;4.13;100.00;104347.31;10376544;28;20042;-67
2023/02/06 02:59:25;;;;;;;22.75;6.68;;;;;;;4.08;100.00;104353.84;10378132;28;20034;-67
2023/02/06 03:04:47;;;;;;;31.75;5.88;;;;;;;4.11;100.00;104348.34;10360263;28;20030;-67
2023/02/06 03:10:00;;;;;;;24.35;4.82;;;;;;;4.12;100.00;104345.59;10377227;28;20037;-67
2023/02/06 03:15:04;;;;;;;25.38;6.53;;;;;;;4.12;100.00;104350.09;10378896;28;20030;-67
2023/02/06 03:20:05;;;;;;;40.83;7.55;;;;;;;4.10;100.00;104355.50;10378011;28;20068;-67
2023/02/06 03:25:09;;;;;;;28.58;6.43;;;;;;;4.10;100.00;104360.00;10376116;28;20026;-67
2023/02/06 03:30:10;;;;;;;31.08;6.03;;;;;;;4.05;100.00;104365.59;10376197;28;20034;-67
2023/02/06 03:35:13;;;;;;;20.80;7.57;;;;;;;4.08;100.00;104367.25;10375070;28;20038;-67
2023/02/06 03:40:13;;;;;;;29.10;7.43;;;;;;;4.10;100.00;104362.69;10376073;28;20096;-67
2023/02/06 03:45:24;;;;;;;26.85;6.82;;;;;;;4.08;100.00;104367.25;10374902;28;20488;-67
2023/02/06 03:50:25;;;;;;;20.88;6.03;;;;;;;4.07;100.00;104363.69;10391221;28;20040;-67
2023/02/06 03:55:25;;;;;;;24.20;6.32;;;;;;;4.07;100.00;104361.00;10359322;28;20057;-66
2023/02/06 04:00:26;;;;;;;20.90;6.57;;;;;;;4.03;100.00;104364.78;10375751;28;20505;-67
2023/02/06 04:05:26;;;;;;;14.75;4.63;;;;;;;3.86;100.00;104364.66;10392747;28;20084;-68
2023/02/06 04:10:26;;;;;;;23.98;5.05;;;;;;;3.69;100.00;104355.56;10390314;28;20054;-66
2023/02/06 04:15:27;;;;;;;36.88;7.22;;;;;;;3.62;100.00;104356.75;10374894;28;20034;-66
2023/02/06 04:20:27;;;;;;;32.25;7.38;;;;;;;3.62;100.00;104350.53;10376044;28;20080;-67
2023/02/06 04:25:28;;;;;;;30.60;5.47;;;;;;;3.59;100.00;104353.34;10357359;28;20374;-67
2023/02/06 04:30:28;;;;;;;32.15;5.93;;;;;;;3.56;100.00;104357.03;10374133;28;20054;-67
2023/02/06 04:35:29;;;;;;;27.73;6.53;;;;;;;3.44;100.00;104371.81;10374958;28;20174;-67
2023/02/06 04:40:29;;;;;;;10.57;4.93;;;;;;;3.44;100.00;104370.94;10374444;28;20425;-67
2023/02/06 04:45:29;;;;;;;14.20;5.15;;;;;;;3.46;100.00;104380.69;10374256;28;20088;-67
2023/02/06 04:50:30;;;;;;;15.55;5.65;;;;;;;3.42;100.00;104387.13;10375057;28;20404;-66
2023/02/06 04:55:31;;;;;;;10.15;4.93;;;;;;;3.41;100.00;104387.16;10373934;28;20038;-67
2023/02/06 05:00:31;;;;;;;23.30;5.40;;;;;;;3.41;100.00;104380.00;10372734;28;20045;-67
2023/02/06 05:05:31;;;;;;;30.83;5.60;;;;;;;3.42;100.00;104380.88;10380805;28;20041;-67
2023/02/06 05:10:32;;;;;;;20.85;4.90;;;;;;;3.35;100.00;104368.66;10398144;28;20045;-67
2023/02/06 05:15:34;;;;;;;31.80;6.78;;;;;;;3.18;100.00;104366.69;10382720;28;20030;-66
2023/02/06 05:20:35;;;;;;;27.63;7.20;;;;;;;3.15;100.00;104374.84;10380695;28;20030;-67
2023/02/06 05:25:35;;;;;;;8.93;4.57;;;;;;;3.08;100.00;104362.66;10381154;28;20065;-67
2023/02/06 05:30:35;;;;;;;31.67;5.05;;;;;;;2.98;100.00;104349.66;10381193;28;20386;-67
2023/02/06 05:35:39;;;;;;;24.65;5.45;;;;;;;2.90;100.00;104349.09;10382255;28;20046;-67
2023/02/06 05:40:40;;;;;;;12.13;5.82;;;;;;;2.86;100.00;104352.81;10381640;28;20457;-68
2023/02/06 05:45:40;;;;;;;12.98;4.80;;;;;;;3.00;100.00;104345.13;10397492;28;20160;-68
2023/02/06 05:50:40;;;;;;;11.55;4.22;;;;;;;3.15;100.00;104356.97;10380591;28;20041;-67
2023/02/06 05:55:41;;;;;;;17.52;4.75;;;;;;;3.35;100.00;104369.56;10378773;28;20046;-67
2023/02/06 06:00:41;;;;;;;29.42;6.10;;;;;;;3.53;100.00;104361.66;10394582;28;20038;-67
2023/02/06 06:05:41;;;;;;;18.13;4.47;;;;;;;3.64;100.00;104364.75;10380014;28;20123;-67
2023/02/06 06:10:42;;;;;;;32.92;5.03;;;;;;;3.67;100.00;104343.16;10378258;28;20050;-67
2023/02/06 06:15:42;;;;;;;16.90;7.07;;;;;;;3.69;100.00;104355.56;10380018;28;20481;-67
2023/02/06 06:20:43;;;;;;;14.73;5.15;;;;;;;3.72;100.00;104357.22;10381119;28;20150;-67
2023/02/06 06:25:45;;;;;;;28.45;5.88;;;;;;;3.70;100.00;104354.63;10378533;28;20026;-67
2023/02/06 06:30:45;;;;;;;26.25;6.43;;;;;;;3.68;100.00;104350.28;10378871;28;20045;-67
2023/02/06 06:35:47;;;;;;;20.40;4.95;;;;;;;3.64;100.00;104348.69;10378254;28;20052;-67
2023/02/06 06:40:47;;;;;;;32.80;8.43;;;;;;;3.64;100.00;104344.19;10377484;28;20052;-66
2023/02/06 06:45:47;;;;;;;28.10;6.57;;;;;;;3.71;100.00;104345.66;10378927;28;20034;-67
2023/02/06 06:50:49;;;;;;;41.00;8.00;;;;;;;3.78;100.00;104361.47;10378610;28;20042;-67
2023/02/06 06:55:49;;;;;;;19.38;4.47;;;;;;;3.87;100.00;104345.84;10377258;28;20036;-67
2023/02/06 07:00:52;;;;;;;26.67;6.28;;;;;;;4.04;100.00;104358.47;10377830;28;20377;-67
2023/02/06 07:05:52;;;;;;;23.65;6.40;;;;;;;3.96;100.00;104356.16;10377111;28;20065;-67
2023/02/06 07:10:52;;;;;;;30.52;7.05;;;;;;;3.86;100.00;104359.28;10376850;28;20477;-66
2023/02/06 07:15:53;;;;;;;15.93;5.10;;;;;;;3.75;100.00;104354.41;10377245;28;20095;-67
2023/02/06 07:20:53;;;;;;;27.50;6.50;;;;;;;3.67;100.00;104348.50;10376595;28;20069;-67
2023/02/06 07:25:55;;;;;;;16.70;5.93;;;;;;;3.67;100.00;104340.47;10377387;28;20470;-67
2023/02/06 07:31:03;;;;;;;27.50;7.47;;;;;;;3.75;100.00;104338.34;10375507;28;20066;-67
2023/02/06 07:36:03;;;;;;;24.45;6.95;;;;;;;3.80;100.00;104339.00;10375768;28;20437;-66
2023/02/06 07:41:04;;;;;;;23.90;7.10;;;;;;;3.85;100.00;104342.34;10390845;28;20046;-66
2023/02/06 07:46:04;;;;;;;19.05;6.88;;;;;;;3.94;100.00;104341.94;10375365;28;20052;-67
2023/02/06 07:51:06;;;;;;;38.65;7.40;;;;;;;4.13;100.00;104346.47;10390795;28;20033;-67
2023/02/06 07:56:14;;;;;;;23.23;5.85;;;;;;;4.28;100.00;104336.84;10391602;28;20036;-67
2023/02/06 08:01:14;;;;;;;14.77;6.47;;;;;;;4.38;100.00;104324.72;10375438;28;20038;-67
2023/02/06 08:06:15;;;;;;;23.27;7.13;;;;;;;4.49;100.00;104321.53;10375651;28;20046;-68
2023/02/06 08:11:18;;;;;;;24.85;8.63;;;;;;;4.59;100.00;104309.38;10374607;28;20108;-69
2023/02/06 08:16:19;;;;;;;30.23;11.25;;;;;;;4.68;100.00;104302.72;10375606;28;20044;-67
2023/02/06 08:21:21;;;;;;;24.92;10.18;;;;;;;4.81;100.00;104298.47;10375004;28;20118;-67
2023/02/06 08:26:21;;;;;;;32.83;9.65;;;;;;;4.83;100.00;104292.09;10374689;28;20026;-67
2023/02/06 08:31:42;;;;;;;34.70;9.13;;;;;;;4.88;100.00;104281.09;10377117;28;20060;-67
2023/02/06 08:36:42;;;;;;;25.88;8.63;;;;;;;5.15;100.00;104276.16;10374209;28;20050;-66
2023/02/06 08:41:43;;;;;;;32.60;9.05;;;;;;;5.36;100.00;104268.81;10374444;28;20038;-65
2023/02/06 08:46:44;;;;;;;31.35;9.30;;;;;;;5.56;100.00;104252.47;10373309;28;20030;-67
2023/02/06 08:51:45;;;;;;;33.42;9.93;;;;;;;7.40;100.00;104241.91;10372998;28;20026;-67
2023/02/06 08:56:45;;;;;;;44.47;10.82;;;;;;;8.14;100.00;104229.16;10375420;28;20465;-67
2023/02/06 09:01:47;;;;;;;38.30;10.88;;;;;;;7.95;100.00;104218.69;10390495;28;20468;-67
2023/02/06 09:06:48;;;;;;;41.97;10.07;;;;;;;7.13;100.00;104228.28;10373919;28;20481;-68
2023/02/06 09:11:48;;;;;;;36.88;9.75;;;;;;;7.38;100.00;104230.34;10372225;28;20041;-67
2023/02/06 09:16:49;;;;;;;29.13;8.35;;;;;;;8.81;100.00;104226.53;10373743;28;20394;-67
2023/02/06 09:21:49;;;;;;;36.65;11.40;;;;;;;9.76;100.00;104225.25;10373579;28;20127;-66
2023/02/06 09:26:50;;;;;;;20.30;6.25;;;;;;;10.39;100.00;104228.81;10373796;28;20045;-67
2023/02/06 09:31:50;;;;;;;28.77;6.68;;;;;;;10.82;100.00;104229.13;10374047;28;20058;-67
2023/02/06 09:36:53;;;;;;;21.27;6.03;;;;;;;11.17;100.00;104220.97;10372792;28;20057;-68
2023/02/06 09:42:05;;;;;;;27.23;7.93;;;;;;;11.63;100.00;104205.59;10373355;28;20026;-67
2023/02/06 09:47:06;;;;;;;13.90;6.15;;;;;;;12.06;100.00;104194.84;10374021;28;20125;-67
2023/02/06 09:52:09;;;;;;;12.40;5.07;;;;;;;12.40;100.00;104204.75;10380139;28;20126;-67
2023/02/06 09:57:24;;;;;;;34.10;7.97;;;;;;;12.70;100.00;104206.72;10381081;28;20105;-67
2023/02/06 10:02:43;;;;;;;25.65;6.55;;;;;;;12.85;100.00;104221.72;10380075;28;20120;-68
2023/02/06 10:08:19;;;;;;;12.07;5.53;;;;;;;13.04;100.00;104219.16;10379804;28;20061;-67
2023/02/06 10:13:25;;;;;;;20.52;5.82;;;;;;;13.24;100.00;104232.88;10379183;28;20033;-67
2023/02/06 10:18:36;;;;;;;13.15;5.78;;;;;;;13.42;100.00;104227.72;10393381;28;20509;-67
2023/02/06 10:23:45;;;;;;;14.27;4.45;;;;;;;13.47;100.00;104230.94;10379002;28;20026;-67
2023/02/06 10:28:54;;;;;;;19.35;5.38;;;;;;;13.12;100.00;104239.41;10379069;28;20026;-67
2023/02/06 10:34:13;;;;;;;17.20;6.65;;;;;;;12.50;100.00;104239.19;10380268;28;20112;-67
2023/02/06 10:39:44;;;;;;;17.60;6.63;;;;;;;13.12;100.00;104243.00;10378620;28;20034;-67
2023/02/06 10:45:09;;;;;;;24.80;5.43;;;;;;;13.75;100.00;104232.03;10379497;28;20519;-67
2023/02/06 10:50:32;;;;;;;16.80;5.35;;;;;;;13.79;100.00;104232.66;10393650;28;20479;-67
2023/02/06 10:55:57;;;;;;;13.70;4.30;;;;;;;13.32;100.00;104232.28;10378596;28;20034;-67
2023/02/06 11:00:58;;;;;;;12.60;5.55;;;;;;;12.41;100.00;104234.53;10377487;28;20030;-66
2023/02/06 11:05:59;;;;;;;12.25;4.32;;;;;;;12.85;100.00;104227.19;10391928;28;20077;-66
2023/02/06 11:11:29;;;;;;;24.73;5.25;;;;;;;12.38;100.00;104223.03;10392592;28;20470;-67
2023/02/06 11:16:30;;;;;;;15.95;4.90;;;;;;;11.76;100.00;104227.19;10392354;28;20025;-67
2023/02/06 11:21:39;;;;;;;26.83;5.70;;;;;;;10.71;100.00;104234.50;10392038;28;20038;-67
2023/02/06 11:26:45;;;;;;;20.90;5.55;;;;;;;10.45;100.00;104234.63;10376632;28;20037;-67
2023/02/06 11:31:52;;;;;;;11.77;4.18;;;;;;;12.79;100.00;104223.16;10391512;28;20042;-67
2023/02/06 11:36:53;;;;;;;;;;;;;;;14.63;100.00;104214.91;10376575;28;20042;-67
2023/02/06 11:41:58;;;;;;;9.32;3.45;;;;;;;13.53;100.00;104208.59;10376245;28;19917;-67
2023/02/06 11:47:18;;;;;;;17.65;3.83;;;;;;;12.46;100.00;104193.38;10374706;28;20029;-67
2023/02/06 11:52:29;;;;;;;23.20;4.63;;;;;;;13.38;100.00;104189.03;10391089;28;20033;-67
2023/02/06 11:57:32;;;;;;;15.85;4.10;;;;;;;14.01;100.00;104169.75;10374637;28;20042;-67
2023/02/06 12:02:34;;;;;;;12.20;4.18;;;;;;;14.08;100.00;104161.88;10373751;28;20478;-67
2023/02/06 12:07:37;;;;;;;14.63;4.57;;;;;;;13.77;100.00;104158.38;10376301;28;20411;-67
2023/02/06 12:12:39;;;;;;;16.40;4.00;;;;;;;14.08;100.00;104156.44;10373185;28;20347;-67
2023/02/06 12:18:11;;;;;;;11.82;4.40;;;;;;;13.71;100.00;104148.88;10373684;28;20025;-67
2023/02/06 12:23:15;;;;;;;12.13;5.18;;;;;;;12.58;100.00;104154.28;10372854;28;20127;-67
2023/02/06 12:28:44;;;;;;;11.27;4.18;;;;;;;12.24;100.00;104148.97;10390701;28;20414;-67
2023/02/06 12:33:52;;;;;;;19.50;4.90;;;;;;;12.28;100.00;104153.19;10388179;28;20054;-66
2023/02/06 12:39:29;;;;;;;17.17;5.10;;;;;;;12.20;100.00;104144.78;10374670;28;20049;-67
2023/02/06 12:44:44;;;;;;;14.60;4.45;;;;;;;12.83;100.00;104119.50;10362806;28;20437;-67
2023/02/06 12:50:04;;;;;;;17.23;4.22;;;;;;;13.19;100.00;104126.31;10375510;28;20034;-67
2023/02/06 12:55:22;;;;;;;14.65;4.68;;;;;;;13.03;100.00;104119.50;10376449;28;20037;-67
2023/02/06 13:00:59;;;;;;;14.25;3.63;;;;;;;12.46;100.00;104111.81;10359899;28;20037;-66
2023/02/06 13:06:26;;;;;;;12.20;4.45;;;;;;;11.64;100.00;104120.44;10372795;28;20486;-66
2023/02/06 13:11:33;;;;;;;19.60;4.18;;;;;;;9.96;100.00;104124.53;10374395;28;20033;-66
2023/02/06 13:17:10;;;;;;;22.98;5.25;;;;;;;10.82;100.00;104117.13;10389169;28;20037;-66
2023/02/06 13:22:15;;;;;;;10.67;3.40;;;;;;;11.57;100.00;104101.09;10372561;28;20038;-66
2023/02/06 13:27:23;;;;;;;13.88;3.30;;;;;;;11.77;100.00;104099.47;10380632;28;20053;-67
2023/02/06 13:32:29;;;;;;;10.25;3.90;;;;;;;12.09;100.00;104091.38;10381119;28;20445;-66
2023/02/06 13:37:38;;;;;;;18.75;4.45;;;;;;;11.45;100.00;104093.94;10380881;28;20033;-67
2023/02/06 13:42:57;;;;;;;14.23;4.40;;;;;;;11.44;100.00;104084.09;10379995;28;20490;-66
2023/02/06 13:48:19;;;;;;;19.92;3.67;;;;;;;10.59;100.00;104084.56;10396190;28;20377;-66
2023/02/06 13:53:38;;;;;;;12.05;4.95;;;;;;;9.92;100.00;104082.44;10380503;28;20477;-66
2023/02/06 13:58:56;;;;;;;13.98;2.97;;;;;;;10.40;100.00;104090.53;10380324;28;20128;-66
2023/02/06 14:03:57;;;;;;;15.65;4.78;;;;;;;11.13;100.00;104069.44;10396464;28;20026;-66
2023/02/06 14:09:12;;;;;;;9.82;4.28;;;;;;;11.07;100.00;104069.91;10379756;28;20065;-66
2023/02/06 14:14:27;;;;;;;6.38;4.63;;;;;;;10.26;100.00;104077.16;10380877;28;20045;-66
2023/02/06 14:19:33;;;;;;;25.48;6.18;;;;;;;9.80;100.00;104085.19;10379435;28;20463;-66
2023/02/06 14:25:03;;;;;;;18.07;4.33;;;;;;;9.95;100.00;104081.31;10394406;28;20168;-66
2023/02/06 14:30:26;;;;;;;4.07;3.30;;;;;;;9.89;100.00;104071.81;10391343;28;20030;-66
2023/02/06 14:35:30;;;;;;;16.08;4.53;;;;;;;9.68;100.00;104084.25;10374513;28;20477;-66
2023/02/06 14:40:33;;;;;;;18.70;6.65;;;;;;;9.34;100.00;104073.19;10379924;28;20033;-66
2023/02/06 14:45:36;;;;;;;13.70;5.50;;;;;;;9.17;100.00;104073.56;10393743;28;20037;-66
2023/02/06 14:50:39;;;;;;;17.20;4.80;;;;;;;9.02;100.00;104089.88;10376505;28;20502;-66
2023/02/06 14:55:40;;;;;;;13.63;5.82;;;;;;;8.73;100.00;104091.94;10377064;28;20504;-66
2023/02/06 15:00:41;;;;;;;12.25;4.70;;;;;;;8.61;100.00;104095.47;10393199;28;20021;-66
2023/02/06 15:05:41;;;;;;;13.38;4.82;;;;;;;8.63;100.00;104084.59;10376001;28;20037;-66
2023/02/06 15:10:42;;;;;;;29.23;4.13;;;;;;;8.68;100.00;104087.81;10377011;28;20056;-66
2023/02/06 15:15:51;;;;;;;26.50;6.05;;;;;;;8.70;100.00;104088.59;10380535;28;20116;-67
2023/02/06 15:21:02;;;;;;;12.35;3.90;;;;;;;8.74;100.00;104092.78;10393524;28;20382;-66
2023/02/06 15:26:04;;;;;;;23.88;5.35;;;;;;;8.69;100.00;104094.97;10375384;28;20033;-66
2023/02/06 15:31:16;;;;;;;15.43;5.85;;;;;;;8.30;100.00;104097.56;10392492;28;20053;-65
2023/02/06 15:36:43;;;;;;;13.18;4.20;;;;;;;8.03;100.00;104102.13;10376310;28;20033;-66
2023/02/06 15:41:46;;;;;;;16.45;5.10;;;;;;;7.98;100.00;104101.56;10374576;28;20048;-66
2023/02/06 15:46:47;;;;;;;18.23;5.97;;;;;;;8.00;100.00;104105.03;10391197;28;20038;-66
2023/02/06 15:51:52;;;;;;;10.32;6.25;;;;;;;7.99;100.00;104112.25;10374252;28;20056;-66
2023/02/06 15:57:31;;;;;;;13.20;5.72;;;;;;;7.84;100.00;104108.72;10391561;28;20049;-66
2023/02/06 16:02:33;;;;;;;38.00;6.03;;;;;;;7.54;100.00;104102.66;10390813;28;20481;-66
2023/02/06 16:07:34;;;;;;;11.95;3.72;;;;;;;7.36;100.00;104102.84;10391093;28;20034;-66
2023/02/06 16:12:38;;;;;;;21.70;5.43;;;;;;;7.01;100.00;104094.28;10373812;28;20116;-66
2023/02/06 16:17:40;;;;;;;18.42;4.43;;;;;;;6.73;100.00;104089.75;10373954;28;20029;-66
2023/02/06 16:22:40;;;;;;;13.15;5.15;;;;;;;6.54;100.00;104087.31;10374816;28;20079;-66
2023/02/06 16:27:43;;;;;;;11.52;4.20;;;;;;;6.43;100.00;104089.78;10375479;28;20044;-66
2023/02/06 16:32:43;;;;;;;15.02;4.75;;;;;;;6.26;100.00;104091.66;10374577;28;20140;-66
2023/02/06 16:37:44;;;;;;;11.85;3.72;;;;;;;6.18;100.00;104104.69;10375246;28;20033;-66
2023/02/06 16:42:47;;;;;;;12.73;3.35;;;;;;;6.03;100.00;104110.97;10390368;28;20137;-66
2023/02/06 16:47:48;;;;;;;13.90;3.83;;;;;;;6.02;100.00;104111.91;10374408;28;20462;-66
2023/02/06 16:52:50;;;;;;;16.33;4.78;;;;;;;5.88;100.00;104106.44;10373303;28;20042;-66
2023/02/06 16:57:52;;;;;;;22.55;6.95;;;;;;;5.80;100.00;104123.88;10390026;28;20076;-66
2023/02/06 17:02:52;;;;;;;32.58;6.18;;;;;;;5.54;100.00;104122.66;10396838;28;20098;-66
2023/02/06 17:07:53;;;;;;;11.20;5.57;;;;;;;5.27;100.00;104125.06;10397479;28;20038;-66
2023/02/06 17:12:54;;;;;;;20.85;6.43;;;;;;;5.23;100.00;104123.50;10380800;28;20115;-66
2023/02/06 17:17:54;;;;;;;25.95;4.95;;;;;;;5.04;100.00;104120.03;10381195;28;20398;-66
2023/02/06 17:22:55;;;;;;;22.67;5.85;;;;;;;4.90;100.00;104121.63;10396995;28;20045;-66
2023/02/06 17:27:55;;;;;;;8.63;4.50;;;;;;;4.76;100.00;104109.91;10397426;28;20038;-66
2023/02/06 17:32:55;;;;;;;9.70;3.17;;;;;;;4.58;100.00;104117.97;10382938;28;20069;-66
2023/02/06 17:37:56;;;;;;;18.85;5.00;;;;;;;4.48;100.00;104111.34;10384384;28;20038;-66
2023/02/06 17:42:57;;;;;;;20.42;4.53;;;;;;;4.45;100.00;104116.00;10398629;28;20030;-66
2023/02/06 17:47:57;;;;;;;15.73;4.78;;;;;;;4.38;100.00;104112.75;10379635;28;20061;-66
2023/02/06 17:52:59;;;;;;;10.40;3.42;;;;;;;4.32;100.00;104116.59;10395901;28;20474;-66
2023/02/06 17:57:59;;;;;;;14.30;3.97;;;;;;;4.28;100.00;104112.34;10380399;28;20088;-66
2023/02/06 18:03:00;;;;;;;19.77;4.68;;;;;;;4.24;100.00;104116.13;10380119;28;20069;-66
2023/02/06 18:08:00;;;;;;;14.20;4.97;;;;;;;4.19;100.00;104110.13;10380024;28;20099;-66
2023/02/06 18:13:00;;;;;;;16.65;3.60;;;;;;;4.11;100.00;104110.50;10393398;28;20049;-66
2023/02/06 18:18:03;;;;;;;14.52;4.43;;;;;;;3.98;100.00;104101.31;10379877;28;20038;-66
2023/02/06 18:23:03;;;;;;;5.25;3.85;;;;;;;3.87;100.00;104088.47;10396122;28;20030;-66
2023/02/06 18:28:04;;;;;;;21.08;6.57;;;;;;;3.88;100.00;104083.97;10380561;28;20374;-66
2023/02/06 18:33:04;;;;;;;18.63;5.10;;;;;;;3.83;100.00;104092.25;10378400;28;20054;-66
2023/02/06 18:38:08;;;;;;;8.90;4.50;;;;;;;3.68;100.00;104082.25;10393380;28;20034;-66
2023/02/06 18:43:08;;;;;;;16.73;4.10;;;;;;;3.57;100.00;104071.16;10379943;28;20080;-66
2023/02/06 18:48:10;;;;;;;18.52;5.57;;;;;;;3.57;100.00;104071.16;10380249;28;20466;-66
2023/02/06 18:53:11;;;;;;;19.42;4.88;;;;;;;3.49;100.00;104056.34;10378738;28;20037;-66
2023/02/06 18:58:11;;;;;;;29.38;5.80;;;;;;;3.49;100.00;104055.47;10392722;28;20056;-66
2023/02/06 19:03:12;;;;;;;25.92;5.47;;;;;;;3.46;100.00;104067.19;10375996;28;20113;-66
2023/02/06 19:08:12;;;;;;;32.15;7.18;;;;;;;3.47;100.00;104073.41;10377715;28;20070;-66
2023/02/06 19:13:12;;;;;;;13.18;6.80;;;;;;;3.42;100.00;104065.63;10377883;28;20041;-66
2023/02/06 19:18:13;;;;;;;23.63;5.70;;;;;;;3.39;100.00;104071.13;10377346;28;20474;-66
2023/02/06 19:23:13;;;;;;;11.55;4.93;;;;;;;3.21;100.00;104058.59;10375517;28;20061;-66
2023/02/06 19:28:14;;;;;;;13.40;6.40;;;;;;;3.02;100.00;104056.75;10376865;28;20037;-66
2023/02/06 19:33:14;;;;;;;17.70;7.20;;;;;;;3.05;100.00;104057.56;10377062;28;20552;-65
2023/02/06 19:38:14;;;;;;;24.27;7.95;;;;;;;2.88;100.00;104051.19;10377639;28;20108;-65
2023/02/06 19:43:15;;;;;;;20.80;7.93;;;;;;;2.88;100.00;104059.22;10376010;28;20379;-65
2023/02/06 19:48:15;;;;;;;22.98;6.20;;;;;;;2.86;100.00;104055.72;10377040;28;20470;-66
2023/02/06 19:53:16;;;;;;;22.15;5.88;;;;;;;2.87;100.00;104043.19;10377615;28;20042;-65
2023/02/06 19:58:16;;;;;;;11.05;6.03;;;;;;;2.84;100.00;104035.31;10378050;28;20088;-66
2023/02/06 20:03:16;;;;;;;14.20;6.95;;;;;;;2.81;100.00;104036.34;10375404;28;20462;-66
2023/02/06 20:08:17;;;;;;;24.48;8.23;;;;;;;2.78;100.00;104025.78;10375367;28;20069;-65
2023/02/06 20:13:17;;;;;;;15.45;7.85;;;;;;;2.71;100.00;104026.97;10374577;28;20044;-65
2023/02/06 20:18:18;;;;;;;12.80;7.88;;;;;;;2.61;100.00;104031.00;10391547;28;20037;-65
2023/02/06 20:23:18;;;;;;;19.15;7.65;;;;;;;2.45;100.00;104022.78;10373772;28;20076;-65
2023/02/06 20:28:19;;;;;;;17.92;7.50;;;;;;;2.44;100.00;104015.72;10375000;28;20042;-66
2023/02/06 20:33:19;;;;;;;22.88;7.50;;;;;;;2.34;100.00;104015.25;10374401;28;20132;-65
2023/02/06 20:38:19;;;;;;;27.90;8.85;;;;;;;2.32;100.00;104014.44;10374617;28;20045;-65
2023/02/06 20:43:20;;;;;;;24.83;8.15;;;;;;;2.34;100.00;104031.28;10375537;28;20057;-65
2023/02/06 20:48:20;;;;;;;18.85;8.57;;;;;;;2.19;100.00;104023.94;10374009;28;20030;-66
2023/02/06 20:53:20;;;;;;;15.55;8.98;;;;;;;2.03;100.00;104031.72;10391922;28;20041;-65
2023/02/06 20:58:21;;;;;;;25.80;8.75;;;;;;;1.95;100.00;104032.06;10374824;28;20497;-65
2023/02/06 21:03:21;;;;;;;16.42;7.40;;;;;;;1.91;100.00;104042.94;10374564;28;20080;-65
2023/02/06 21:08:22;;;;;;;20.92;8.48;;;;;;;1.87;100.00;104039.50;10374127;28;20519;-65
2023/02/06 21:13:23;;;;;;;27.95;9.55;;;;;;;1.78;100.00;104054.13;10372724;28;20046;-65
2023/02/06 21:18:25;;;;;;;31.77;9.88;;;;;;;1.70;100.00;104052.72;10373350;28;20038;-65
2023/02/06 21:23:25;;;;;;;16.50;8.52;;;;;;;1.58;100.00;104054.94;10373233;28;20030;-65
2023/02/06 21:28:26;;;;;;;28.35;10.55;;;;;;;1.46;100.00;104067.91;10373721;28;20026;-66
2023/02/06 21:33:26;;;;;;;20.17;8.90;;;;;;;1.43;100.00;104058.19;10373645;28;20082;-65
2023/02/06 21:38:26;;;;;;;20.23;8.30;;;;;;;1.55;100.00;104051.50;10372383;28;20367;-65
2023/02/06 21:43:27;;;;;;;14.73;8.65;;;;;;;1.59;100.00;104043.31;10374192;28;20080;-65
2023/02/06 21:48:27;;;;;;;30.48;8.63;;;;;;;1.47;100.00;104046.50;10380949;28;20474;-65
2023/02/06 21:53:28;;;;;;;21.90;10.15;;;;;;;1.32;100.00;104047.09;10364520;28;20058;-65
2023/02/06 21:58:28;;;;;;;23.70;10.02;;;;;;;1.41;100.00;104043.19;10383981;28;20034;-65
2023/02/06 22:03:29;;;;;;;44.00;11.15;;;;;;;1.42;100.00;104036.91;10382581;28;20030;-65
2023/02/06 22:08:29;;;;;;;25.60;10.77;;;;;;;1.35;100.00;104025.59;10379569;28;20037;-65
2023/02/06 22:13:29;;;;;;;21.65;9.98;;;;;;;1.29;100.00;104024.03;10395712;28;20399;-65
2023/02/06 22:18:30;;;;;;;27.15;8.13;;;;;;;1.21;100.00;104027.94;10380097;28;20058;-65
2023/02/06 22:23:30;;;;;;;29.27;10.57;;;;;;;1.06;100.00;104021.41;10381290;28;20034;-65
2023/02/06 22:28:31;;;;;;;24.23;10.93;;;;;;;0.98;100.00;104032.34;10378341;28;20474;-65
2023/02/06 22:33:31;;;;;;;34.53;8.45;;;;;;;0.93;100.00;104031.66;10378012;28;20100;-66
2023/02/06 22:38:32;;;;;;;25.23;9.43;;;;;;;0.92;100.00;104035.25;10378400;28;20030;-66
2023/02/06 22:43:34;;;;;;;18.75;8.57;;;;;;;0.85;100.00;104036.41;10394064;28;20385;-65
2023/02/06 22:48:34;;;;;;;22.38;8.45;;;;;;;0.78;100.00;104037.56;10361206;28;20128;-66
2023/02/06 22:53:38;;;;;;;31.00;10.00;;;;;;;0.84;100.00;104038.22;10380475;28;20045;-65
2023/02/06 22:58:38;;;;;;;18.10;9.65;;;;;;;0.81;100.00;104032.13;10376738;28;20081;-65